sensor_id;sensor_type;location;lat;lon;timestamp;P1;durP1;ratioP1;P2;durP2;ratioP2
1446;SDS011;717;51.522;7.266;2024-02-16T00:01:45;1.20;;;0.82;;
1446;SDS011;717;51.522;7.266;2024-02-16T00:04:15;3.08;;;1.02;;
1446;SDS011;717;51.522;7.266;2024-02-16T00:06:48;2.08;;;0.90;;
1446;SDS011;717;51.522;7.266;2024-02-16T00:09:18;1.35;;;0.88;;
1446;SDS011;717;51.522;7.266;2024-02-16T00:11:48;3.35;;;0.85;;
1446;SDS011;717;51.522;7.266;2024-02-16T00:14:19;1.67;;;0.80;;
1446;SDS011;717;51.522;7.266;2024-02-16T00:16:49;2.20;;;0.73;;
1446;SDS011;717;51.522;7.266;2024-02-16T00:19:19;1.83;;;0.70;;
1446;SDS011;717;51.522;7.266;2024-02-16T00:21:52;1.98;;;0.77;;
1446;SDS011;717;51.522;7.266;2024-02-16T00:24:22;1.20;;;0.80;;
1446;SDS011;717;51.522;7.266;2024-02-16T00:26:52;1.92;;;0.70;;
1446;SDS011;717;51.522;7.266;2024-02-16T00:29:22;1.90;;;1.08;;
1446;SDS011;717;51.522;7.266;2024-02-16T00:31:52;1.77;;;0.90;;
1446;SDS011;717;51.522;7.266;2024-02-16T00:34:22;1.63;;;0.70;;
1446;SDS011;717;51.522;7.266;2024-02-16T00:36:55;1.23;;;0.63;;
1446;SDS011;717;51.522;7.266;2024-02-16T00:39:25;1.02;;;0.63;;
1446;SDS011;717;51.522;7.266;2024-02-16T00:41:55;1.75;;;0.90;;
1446;SDS011;717;51.522;7.266;2024-02-16T00:44:25;3.17;;;0.90;;
1446;SDS011;717;51.522;7.266;2024-02-16T00:46:55;1.27;;;0.77;;
1446;SDS011;717;51.522;7.266;2024-02-16T00:49:25;0.90;;;0.70;;
1446;SDS011;717;51.522;7.266;2024-02-16T00:51:58;1.20;;;0.95;;
1446;SDS011;717;51.522;7.266;2024-02-16T00:54:28;1.80;;;0.85;;
1446;SDS011;717;51.522;7.266;2024-02-16T00:56:58;2.38;;;0.75;;
1446;SDS011;717;51.522;7.266;2024-02-16T00:59:30;1.70;;;1.35;;
1446;SDS011;717;51.522;7.266;2024-02-16T01:02:00;1.42;;;0.80;;
1446;SDS011;717;51.522;7.266;2024-02-16T01:04:30;2.10;;;0.90;;
1446;SDS011;717;51.522;7.266;2024-02-16T01:07:03;2.08;;;1.00;;
1446;SDS011;717;51.522;7.266;2024-02-16T01:09:33;0.80;;;0.73;;
1446;SDS011;717;51.522;7.266;2024-02-16T01:12:03;1.25;;;0.90;;
1446;SDS011;717;51.522;7.266;2024-02-16T01:14:33;1.70;;;1.02;;
1446;SDS011;717;51.522;7.266;2024-02-16T01:17:03;2.47;;;0.90;;
1446;SDS011;717;51.522;7.266;2024-02-16T01:19:33;1.67;;;0.82;;
1446;SDS011;717;51.522;7.266;2024-02-16T01:22:05;2.40;;;1.15;;
1446;SDS011;717;51.522;7.266;2024-02-16T01:24:35;1.92;;;0.90;;
1446;SDS011;717;51.522;7.266;2024-02-16T01:27:05;2.38;;;0.98;;
1446;SDS011;717;51.522;7.266;2024-02-16T01:29:35;1.58;;;0.80;;
1446;SDS011;717;51.522;7.266;2024-02-16T01:32:06;2.00;;;0.80;;
1446;SDS011;717;51.522;7.266;2024-02-16T01:34:36;2.45;;;0.90;;
1446;SDS011;717;51.522;7.266;2024-02-16T01:37:09;1.48;;;0.85;;
1446;SDS011;717;51.522;7.266;2024-02-16T01:39:39;3.05;;;0.82;;
1446;SDS011;717;51.522;7.266;2024-02-16T01:42:09;2.00;;;1.00;;
1446;SDS011;717;51.522;7.266;2024-02-16T01:44:39;1.17;;;0.77;;
1446;SDS011;717;51.522;7.266;2024-02-16T01:47:09;1.42;;;0.90;;
1446;SDS011;717;51.522;7.266;2024-02-16T01:49:39;1.52;;;0.80;;
1446;SDS011;717;51.522;7.266;2024-02-16T01:52:11;2.17;;;1.00;;
1446;SDS011;717;51.522;7.266;2024-02-16T01:54:42;1.35;;;0.80;;
1446;SDS011;717;51.522;7.266;2024-02-16T01:57:12;0.88;;;0.70;;
1446;SDS011;717;51.522;7.266;2024-02-16T01:59:42;0.90;;;0.60;;
1446;SDS011;717;51.522;7.266;2024-02-16T02:02:13;1.80;;;0.63;;
1446;SDS011;717;51.522;7.266;2024-02-16T02:04:43;1.92;;;0.95;;
1446;SDS011;717;51.522;7.266;2024-02-16T02:07:15;1.48;;;0.80;;
1446;SDS011;717;51.522;7.266;2024-02-16T02:09:47;2.45;;;0.70;;
1446;SDS011;717;51.522;7.266;2024-02-16T02:12:17;1.33;;;1.00;;
1446;SDS011;717;51.522;7.266;2024-02-16T02:14:47;1.20;;;0.70;;
1446;SDS011;717;51.522;7.266;2024-02-16T02:17:17;1.25;;;0.80;;
1446;SDS011;717;51.522;7.266;2024-02-16T02:19:48;1.80;;;1.08;;
1446;SDS011;717;51.522;7.266;2024-02-16T02:22:21;2.83;;;0.85;;
1446;SDS011;717;51.522;7.266;2024-02-16T02:24:53;2.67;;;0.98;;
1446;SDS011;717;51.522;7.266;2024-02-16T02:27:24;2.70;;;0.90;;
1446;SDS011;717;51.522;7.266;2024-02-16T02:29:55;1.15;;;0.90;;
1446;SDS011;717;51.522;7.266;2024-02-16T02:32:25;1.67;;;0.68;;
1446;SDS011;717;51.522;7.266;2024-02-16T02:34:55;2.35;;;0.93;;
1446;SDS011;717;51.522;7.266;2024-02-16T02:37:28;2.75;;;0.73;;
1446;SDS011;717;51.522;7.266;2024-02-16T02:39:58;2.05;;;0.90;;
1446;SDS011;717;51.522;7.266;2024-02-16T02:42:28;1.83;;;1.00;;
1446;SDS011;717;51.522;7.266;2024-02-16T02:44:58;1.67;;;0.85;;
1446;SDS011;717;51.522;7.266;2024-02-16T02:47:28;1.73;;;0.93;;
1446;SDS011;717;51.522;7.266;2024-02-16T02:49:59;1.00;;;0.90;;
1446;SDS011;717;51.522;7.266;2024-02-16T02:52:32;1.67;;;1.15;;
1446;SDS011;717;51.522;7.266;2024-02-16T02:55:02;1.77;;;0.88;;
1446;SDS011;717;51.522;7.266;2024-02-16T02:57:33;1.70;;;0.90;;
1446;SDS011;717;51.522;7.266;2024-02-16T03:00:04;1.92;;;0.80;;
1446;SDS011;717;51.522;7.266;2024-02-16T03:02:38;1.60;;;1.10;;
1446;SDS011;717;51.522;7.266;2024-02-16T03:05:10;2.38;;;0.95;;
1446;SDS011;717;51.522;7.266;2024-02-16T03:07:43;2.15;;;0.85;;
1446;SDS011;717;51.522;7.266;2024-02-16T03:10:13;1.98;;;1.15;;
1446;SDS011;717;51.522;7.266;2024-02-16T03:12:47;0.80;;;0.70;;
1446;SDS011;717;51.522;7.266;2024-02-16T03:15:18;2.65;;;0.90;;
1446;SDS011;717;51.522;7.266;2024-02-16T03:17:48;1.00;;;0.90;;
1446;SDS011;717;51.522;7.266;2024-02-16T03:20:18;1.30;;;1.02;;
1446;SDS011;717;51.522;7.266;2024-02-16T03:22:51;2.38;;;0.60;;
1446;SDS011;717;51.522;7.266;2024-02-16T03:25:22;1.52;;;0.80;;
1446;SDS011;717;51.522;7.266;2024-02-16T03:27:52;1.92;;;0.77;;
1446;SDS011;717;51.522;7.266;2024-02-16T03:30:22;2.05;;;0.88;;
1446;SDS011;717;51.522;7.266;2024-02-16T03:32:52;1.08;;;0.75;;
1446;SDS011;717;51.522;7.266;2024-02-16T03:35:23;1.73;;;0.90;;
1446;SDS011;717;51.522;7.266;2024-02-16T03:37:56;3.10;;;0.82;;
1446;SDS011;717;51.522;7.266;2024-02-16T03:40:27;2.70;;;1.00;;
1446;SDS011;717;51.522;7.266;2024-02-16T03:42:58;1.42;;;0.90;;
1446;SDS011;717;51.522;7.266;2024-02-16T03:45:28;1.60;;;0.80;;
1446;SDS011;717;51.522;7.266;2024-02-16T03:47:58;1.55;;;0.70;;
1446;SDS011;717;51.522;7.266;2024-02-16T03:50:28;1.40;;;0.88;;
1446;SDS011;717;51.522;7.266;2024-02-16T03:53:01;6.10;;;1.30;;
1446;SDS011;717;51.522;7.266;2024-02-16T03:55:31;2.17;;;1.00;;
1446;SDS011;717;51.522;7.266;2024-02-16T03:58:03;1.95;;;0.90;;
1446;SDS011;717;51.522;7.266;2024-02-16T04:00:33;1.88;;;1.00;;
1446;SDS011;717;51.522;7.266;2024-02-16T04:03:04;1.33;;;0.90;;
1446;SDS011;717;51.522;7.266;2024-02-16T04:05:34;1.98;;;0.80;;
1446;SDS011;717;51.522;7.266;2024-02-16T04:08:07;1.65;;;0.73;;
1446;SDS011;717;51.522;7.266;2024-02-16T04:10:37;3.60;;;1.00;;
1446;SDS011;717;51.522;7.266;2024-02-16T04:13:07;0.82;;;0.70;;
1446;SDS011;717;51.522;7.266;2024-02-16T04:15:37;1.77;;;0.85;;
1446;SDS011;717;51.522;7.266;2024-02-16T04:18:08;1.33;;;0.70;;
1446;SDS011;717;51.522;7.266;2024-02-16T04:20:38;0.93;;;0.80;;
1446;SDS011;717;51.522;7.266;2024-02-16T04:23:11;3.20;;;1.00;;
1446;SDS011;717;51.522;7.266;2024-02-16T04:25:41;1.63;;;0.90;;
1446;SDS011;717;51.522;7.266;2024-02-16T04:28:11;1.48;;;0.75;;
1446;SDS011;717;51.522;7.266;2024-02-16T04:30:41;1.15;;;0.70;;
1446;SDS011;717;51.522;7.266;2024-02-16T04:33:11;1.63;;;1.00;;
1446;SDS011;717;51.522;7.266;2024-02-16T04:35:41;2.63;;;0.90;;
1446;SDS011;717;51.522;7.266;2024-02-16T04:38:15;1.23;;;0.98;;
1446;SDS011;717;51.522;7.266;2024-02-16T04:40:46;2.40;;;0.85;;
1446;SDS011;717;51.522;7.266;2024-02-16T04:43:16;2.38;;;0.93;;
1446;SDS011;717;51.522;7.266;2024-02-16T04:45:46;1.90;;;1.13;;
1446;SDS011;717;51.522;7.266;2024-02-16T04:48:16;1.45;;;0.90;;
1446;SDS011;717;51.522;7.266;2024-02-16T04:50:48;2.67;;;1.30;;
1446;SDS011;717;51.522;7.266;2024-02-16T04:53:20;0.85;;;0.68;;
1446;SDS011;717;51.522;7.266;2024-02-16T04:55:50;0.90;;;0.68;;
1446;SDS011;717;51.522;7.266;2024-02-16T04:58:20;1.65;;;1.10;;
1446;SDS011;717;51.522;7.266;2024-02-16T05:00:50;0.95;;;0.80;;
1446;SDS011;717;51.522;7.266;2024-02-16T05:03:21;1.75;;;1.25;;
1446;SDS011;717;51.522;7.266;2024-02-16T05:05:51;0.85;;;0.82;;
1446;SDS011;717;51.522;7.266;2024-02-16T05:08:24;2.05;;;0.90;;
1446;SDS011;717;51.522;7.266;2024-02-16T05:10:54;1.10;;;0.70;;
1446;SDS011;717;51.522;7.266;2024-02-16T05:13:24;2.78;;;1.00;;
1446;SDS011;717;51.522;7.266;2024-02-16T05:15:54;1.45;;;1.08;;
1446;SDS011;717;51.522;7.266;2024-02-16T05:18:24;2.45;;;0.85;;
1446;SDS011;717;51.522;7.266;2024-02-16T05:20:54;1.00;;;0.82;;
1446;SDS011;717;51.522;7.266;2024-02-16T05:23:27;2.03;;;1.08;;
1446;SDS011;717;51.522;7.266;2024-02-16T05:25:57;1.50;;;0.90;;
1446;SDS011;717;51.522;7.266;2024-02-16T05:28:27;2.17;;;1.23;;
1446;SDS011;717;51.522;7.266;2024-02-16T05:30:58;1.40;;;0.90;;
1446;SDS011;717;51.522;7.266;2024-02-16T05:33:41;1.60;;;1.00;;
1446;SDS011;717;51.522;7.266;2024-02-16T05:36:12;2.45;;;1.08;;
1446;SDS011;717;51.522;7.266;2024-02-16T05:38:49;1.05;;;0.93;;
1446;SDS011;717;51.522;7.266;2024-02-16T05:41:21;1.38;;;0.95;;
1446;SDS011;717;51.522;7.266;2024-02-16T05:43:51;2.33;;;1.40;;
1446;SDS011;717;51.522;7.266;2024-02-16T05:46:21;3.33;;;1.15;;
1446;SDS011;717;51.522;7.266;2024-02-16T05:48:51;2.20;;;0.90;;
1446;SDS011;717;51.522;7.266;2024-02-16T05:51:21;2.30;;;1.20;;
1446;SDS011;717;51.522;7.266;2024-02-16T05:53:54;1.85;;;1.30;;
1446;SDS011;717;51.522;7.266;2024-02-16T05:56:25;1.73;;;0.95;;
1446;SDS011;717;51.522;7.266;2024-02-16T05:58:55;1.45;;;0.98;;
1446;SDS011;717;51.522;7.266;2024-02-16T06:01:25;2.60;;;1.13;;
1446;SDS011;717;51.522;7.266;2024-02-16T06:03:54;1.38;;;0.95;;
1446;SDS011;717;51.522;7.266;2024-02-16T06:06:24;1.92;;;1.17;;
1446;SDS011;717;51.522;7.266;2024-02-16T06:08:57;1.05;;;0.88;;
1446;SDS011;717;51.522;7.266;2024-02-16T06:11:27;1.58;;;1.08;;
1446;SDS011;717;51.522;7.266;2024-02-16T06:13:57;1.85;;;1.20;;
1446;SDS011;717;51.522;7.266;2024-02-16T06:16:29;2.45;;;1.00;;
1446;SDS011;717;51.522;7.266;2024-02-16T06:18:59;2.67;;;1.13;;
1446;SDS011;717;51.522;7.266;2024-02-16T06:21:29;2.65;;;1.40;;
1446;SDS011;717;51.522;7.266;2024-02-16T06:24:02;2.85;;;1.00;;
1446;SDS011;717;51.522;7.266;2024-02-16T06:26:34;1.17;;;1.08;;
1446;SDS011;717;51.522;7.266;2024-02-16T06:29:04;1.70;;;1.20;;
1446;SDS011;717;51.522;7.266;2024-02-16T06:31:35;1.30;;;0.98;;
1446;SDS011;717;51.522;7.266;2024-02-16T06:34:05;1.83;;;1.13;;
1446;SDS011;717;51.522;7.266;2024-02-16T06:36:35;1.35;;;1.00;;
1446;SDS011;717;51.522;7.266;2024-02-16T06:39:11;2.58;;;1.38;;
1446;SDS011;717;51.522;7.266;2024-02-16T06:41:43;1.90;;;1.08;;
1446;SDS011;717;51.522;7.266;2024-02-16T06:44:15;2.08;;;1.20;;
1446;SDS011;717;51.522;7.266;2024-02-16T06:46:50;3.65;;;1.00;;
1446;SDS011;717;51.522;7.266;2024-02-16T06:49:20;2.55;;;1.52;;
1446;SDS011;717;51.522;7.266;2024-02-16T06:51:50;1.30;;;1.00;;
1446;SDS011;717;51.522;7.266;2024-02-16T06:54:23;1.35;;;1.25;;
1446;SDS011;717;51.522;7.266;2024-02-16T06:56:53;3.22;;;1.35;;
1446;SDS011;717;51.522;7.266;2024-02-16T06:59:23;2.78;;;1.20;;
1446;SDS011;717;51.522;7.266;2024-02-16T07:01:53;1.48;;;1.02;;
1446;SDS011;717;51.522;7.266;2024-02-16T07:04:23;2.05;;;1.17;;
1446;SDS011;717;51.522;7.266;2024-02-16T07:06:55;2.22;;;1.55;;
1446;SDS011;717;51.522;7.266;2024-02-16T07:09:28;2.92;;;1.50;;
1446;SDS011;717;51.522;7.266;2024-02-16T07:11:58;2.92;;;1.10;;
1446;SDS011;717;51.522;7.266;2024-02-16T07:14:29;2.78;;;1.40;;
1446;SDS011;717;51.522;7.266;2024-02-16T07:16:59;2.63;;;1.38;;
1446;SDS011;717;51.522;7.266;2024-02-16T07:19:29;2.03;;;0.90;;
1446;SDS011;717;51.522;7.266;2024-02-16T07:21:59;3.75;;;1.25;;
1446;SDS011;717;51.522;7.266;2024-02-16T07:24:31;2.70;;;1.10;;
1446;SDS011;717;51.522;7.266;2024-02-16T07:27:02;1.42;;;1.20;;
1446;SDS011;717;51.522;7.266;2024-02-16T07:29:32;1.75;;;1.45;;
1446;SDS011;717;51.522;7.266;2024-02-16T07:32:04;1.25;;;1.15;;
1446;SDS011;717;51.522;7.266;2024-02-16T07:34:35;1.88;;;1.13;;
1446;SDS011;717;51.522;7.266;2024-02-16T07:37:05;1.73;;;1.58;;
1446;SDS011;717;51.522;7.266;2024-02-16T07:39:38;2.75;;;1.25;;
1446;SDS011;717;51.522;7.266;2024-02-16T07:42:08;1.65;;;1.20;;
1446;SDS011;717;51.522;7.266;2024-02-16T07:44:39;3.95;;;1.60;;
1446;SDS011;717;51.522;7.266;2024-02-16T07:47:09;1.58;;;1.25;;
1446;SDS011;717;51.522;7.266;2024-02-16T07:49:39;4.72;;;1.48;;
1446;SDS011;717;51.522;7.266;2024-02-16T07:52:09;1.88;;;1.48;;
1446;SDS011;717;51.522;7.266;2024-02-16T07:54:42;3.63;;;1.48;;
1446;SDS011;717;51.522;7.266;2024-02-16T07:57:12;2.72;;;1.38;;
1446;SDS011;717;51.522;7.266;2024-02-16T07:59:42;2.80;;;1.30;;
1446;SDS011;717;51.522;7.266;2024-02-16T08:02:12;1.65;;;1.55;;
1446;SDS011;717;51.522;7.266;2024-02-16T08:04:46;3.45;;;1.63;;
1446;SDS011;717;51.522;7.266;2024-02-16T08:07:16;3.38;;;1.25;;
1446;SDS011;717;51.522;7.266;2024-02-16T08:09:49;1.55;;;1.13;;
1446;SDS011;717;51.522;7.266;2024-02-16T08:12:19;2.50;;;1.30;;
1446;SDS011;717;51.522;7.266;2024-02-16T08:14:52;1.58;;;1.30;;
1446;SDS011;717;51.522;7.266;2024-02-16T08:17:26;1.65;;;1.30;;
1446;SDS011;717;51.522;7.266;2024-02-16T08:19:56;1.75;;;1.08;;
1446;SDS011;717;51.522;7.266;2024-02-16T08:22:26;3.08;;;1.40;;
1446;SDS011;717;51.522;7.266;2024-02-16T08:24:58;2.28;;;1.20;;
1446;SDS011;717;51.522;7.266;2024-02-16T08:27:28;2.20;;;1.27;;
1446;SDS011;717;51.522;7.266;2024-02-16T08:29:59;1.77;;;1.05;;
1446;SDS011;717;51.522;7.266;2024-02-16T08:32:30;2.20;;;1.42;;
1446;SDS011;717;51.522;7.266;2024-02-16T08:35:00;3.58;;;1.45;;
1446;SDS011;717;51.522;7.266;2024-02-16T08:37:30;2.75;;;1.45;;
1446;SDS011;717;51.522;7.266;2024-02-16T08:40:03;2.80;;;1.55;;
1446;SDS011;717;51.522;7.266;2024-02-16T08:42:35;2.58;;;1.50;;
1446;SDS011;717;51.522;7.266;2024-02-16T08:45:05;2.50;;;1.20;;
1446;SDS011;717;51.522;7.266;2024-02-16T08:47:36;2.90;;;1.27;;
1446;SDS011;717;51.522;7.266;2024-02-16T08:50:08;3.55;;;0.95;;
1446;SDS011;717;51.522;7.266;2024-02-16T08:52:38;4.60;;;1.00;;
1446;SDS011;717;51.522;7.266;2024-02-16T08:55:11;2.45;;;1.23;;
1446;SDS011;717;51.522;7.266;2024-02-16T08:57:41;2.58;;;1.17;;
1446;SDS011;717;51.522;7.266;2024-02-16T09:00:12;2.33;;;1.60;;
1446;SDS011;717;51.522;7.266;2024-02-16T09:02:43;1.63;;;1.23;;
1446;SDS011;717;51.522;7.266;2024-02-16T09:05:13;3.97;;;1.30;;
1446;SDS011;717;51.522;7.266;2024-02-16T09:07:43;3.47;;;1.85;;
1446;SDS011;717;51.522;7.266;2024-02-16T09:10:16;2.47;;;1.30;;
1446;SDS011;717;51.522;7.266;2024-02-16T09:12:46;2.75;;;1.40;;
1446;SDS011;717;51.522;7.266;2024-02-16T09:15:18;2.33;;;1.50;;
1446;SDS011;717;51.522;7.266;2024-02-16T09:17:48;2.78;;;1.30;;
1446;SDS011;717;51.522;7.266;2024-02-16T09:20:19;3.10;;;1.35;;
1446;SDS011;717;51.522;7.266;2024-02-16T09:22:49;3.72;;;1.33;;
1446;SDS011;717;51.522;7.266;2024-02-16T09:25:22;3.80;;;1.30;;
1446;SDS011;717;51.522;7.266;2024-02-16T09:27:52;2.30;;;1.52;;
1446;SDS011;717;51.522;7.266;2024-02-16T09:30:22;1.98;;;1.45;;
1446;SDS011;717;51.522;7.266;2024-02-16T09:32:53;2.75;;;1.20;;
1446;SDS011;717;51.522;7.266;2024-02-16T09:35:23;2.88;;;1.55;;
1446;SDS011;717;51.522;7.266;2024-02-16T09:37:53;2.10;;;1.40;;
1446;SDS011;717;51.522;7.266;2024-02-16T09:40:26;2.50;;;1.40;;
1446;SDS011;717;51.522;7.266;2024-02-16T09:42:56;2.53;;;1.40;;
1446;SDS011;717;51.522;7.266;2024-02-16T09:45:26;3.22;;;1.50;;
1446;SDS011;717;51.522;7.266;2024-02-16T09:47:58;3.10;;;1.58;;
1446;SDS011;717;51.522;7.266;2024-02-16T09:50:33;3.25;;;1.60;;
1446;SDS011;717;51.522;7.266;2024-02-16T09:53:03;1.70;;;1.30;;
1446;SDS011;717;51.522;7.266;2024-02-16T09:55:37;4.00;;;1.65;;
1446;SDS011;717;51.522;7.266;2024-02-16T09:58:08;4.05;;;1.83;;
1446;SDS011;717;51.522;7.266;2024-02-16T10:00:47;3.05;;;1.67;;
1446;SDS011;717;51.522;7.266;2024-02-16T10:03:21;2.75;;;1.40;;
1446;SDS011;717;51.522;7.266;2024-02-16T10:06:05;1.27;;;1.17;;
1446;SDS011;717;51.522;7.266;2024-02-16T10:08:46;2.88;;;1.20;;
1446;SDS011;717;51.522;7.266;2024-02-16T10:11:20;2.95;;;1.90;;
1446;SDS011;717;51.522;7.266;2024-02-16T10:13:55;3.25;;;1.77;;
1446;SDS011;717;51.522;7.266;2024-02-16T10:16:26;2.65;;;1.58;;
1446;SDS011;717;51.522;7.266;2024-02-16T10:18:57;4.72;;;1.60;;
1446;SDS011;717;51.522;7.266;2024-02-16T10:21:34;3.92;;;1.60;;
1446;SDS011;717;51.522;7.266;2024-02-16T10:24:06;4.57;;;2.08;;
1446;SDS011;717;51.522;7.266;2024-02-16T10:26:40;2.63;;;1.70;;
1446;SDS011;717;51.522;7.266;2024-02-16T10:29:10;4.63;;;1.98;;
1446;SDS011;717;51.522;7.266;2024-02-16T10:31:41;3.63;;;1.50;;
1446;SDS011;717;51.522;7.266;2024-02-16T10:34:13;2.20;;;1.55;;
1446;SDS011;717;51.522;7.266;2024-02-16T10:36:43;3.25;;;1.38;;
1446;SDS011;717;51.522;7.266;2024-02-16T10:39:13;2.65;;;1.90;;
1446;SDS011;717;51.522;7.266;2024-02-16T10:41:48;4.85;;;2.00;;
1446;SDS011;717;51.522;7.266;2024-02-16T10:44:20;2.42;;;1.70;;
1446;SDS011;717;51.522;7.266;2024-02-16T10:46:50;3.15;;;1.65;;
1446;SDS011;717;51.522;7.266;2024-02-16T10:49:22;3.80;;;1.98;;
1446;SDS011;717;51.522;7.266;2024-02-16T10:51:54;3.53;;;1.80;;
1446;SDS011;717;51.522;7.266;2024-02-16T10:54:27;5.03;;;2.05;;
1446;SDS011;717;51.522;7.266;2024-02-16T10:57:07;3.20;;;1.50;;
1446;SDS011;717;51.522;7.266;2024-02-16T10:59:37;3.45;;;1.80;;
1446;SDS011;717;51.522;7.266;2024-02-16T11:02:12;4.57;;;1.98;;
1446;SDS011;717;51.522;7.266;2024-02-16T11:04:44;3.80;;;2.15;;
1446;SDS011;717;51.522;7.266;2024-02-16T11:07:17;3.97;;;1.90;;
1446;SDS011;717;51.522;7.266;2024-02-16T11:09:48;3.60;;;1.83;;
1446;SDS011;717;51.522;7.266;2024-02-16T11:12:22;3.30;;;1.92;;
1446;SDS011;717;51.522;7.266;2024-02-16T11:14:52;2.92;;;1.70;;
1446;SDS011;717;51.522;7.266;2024-02-16T11:17:26;3.20;;;2.20;;
1446;SDS011;717;51.522;7.266;2024-02-16T11:20:02;2.80;;;1.98;;
1446;SDS011;717;51.522;7.266;2024-02-16T11:22:36;2.55;;;1.83;;
1446;SDS011;717;51.522;7.266;2024-02-16T11:25:07;3.67;;;2.08;;
1446;SDS011;717;51.522;7.266;2024-02-16T11:27:40;3.55;;;2.10;;
1446;SDS011;717;51.522;7.266;2024-02-16T11:30:11;3.63;;;2.00;;
1446;SDS011;717;51.522;7.266;2024-02-16T11:32:42;5.13;;;2.35;;
1446;SDS011;717;51.522;7.266;2024-02-16T11:35:12;2.33;;;1.80;;
1446;SDS011;717;51.522;7.266;2024-02-16T11:37:43;3.15;;;1.52;;
1446;SDS011;717;51.522;7.266;2024-02-16T11:40:13;4.78;;;2.05;;
1446;SDS011;717;51.522;7.266;2024-02-16T11:42:46;4.43;;;1.70;;
1446;SDS011;717;51.522;7.266;2024-02-16T11:45:18;3.78;;;1.75;;
1446;SDS011;717;51.522;7.266;2024-02-16T11:47:48;6.07;;;2.00;;
1446;SDS011;717;51.522;7.266;2024-02-16T11:50:18;2.95;;;1.80;;
1446;SDS011;717;51.522;7.266;2024-02-16T11:52:48;3.17;;;2.13;;
1446;SDS011;717;51.522;7.266;2024-02-16T11:55:19;3.10;;;1.88;;
1446;SDS011;717;51.522;7.266;2024-02-16T11:57:51;3.42;;;2.10;;
1446;SDS011;717;51.522;7.266;2024-02-16T12:00:23;5.30;;;2.33;;
1446;SDS011;717;51.522;7.266;2024-02-16T12:02:59;4.25;;;2.17;;
1446;SDS011;717;51.522;7.266;2024-02-16T12:05:29;3.65;;;1.90;;
1446;SDS011;717;51.522;7.266;2024-02-16T12:07:59;4.68;;;2.25;;
1446;SDS011;717;51.522;7.266;2024-02-16T12:10:29;4.18;;;2.03;;
1446;SDS011;717;51.522;7.266;2024-02-16T12:13:03;5.65;;;2.05;;
1446;SDS011;717;51.522;7.266;2024-02-16T12:15:34;3.63;;;2.03;;
1446;SDS011;717;51.522;7.266;2024-02-16T12:18:04;3.38;;;1.88;;
1446;SDS011;717;51.522;7.266;2024-02-16T12:20:34;2.95;;;2.03;;
1446;SDS011;717;51.522;7.266;2024-02-16T12:23:13;5.80;;;2.22;;
1446;SDS011;717;51.522;7.266;2024-02-16T12:25:43;5.35;;;2.40;;
1446;SDS011;717;51.522;7.266;2024-02-16T12:28:16;3.53;;;2.10;;
1446;SDS011;717;51.522;7.266;2024-02-16T12:30:47;5.30;;;2.25;;
1446;SDS011;717;51.522;7.266;2024-02-16T12:33:17;3.97;;;2.17;;
1446;SDS011;717;51.522;7.266;2024-02-16T12:35:47;5.32;;;1.90;;
1446;SDS011;717;51.522;7.266;2024-02-16T12:38:17;7.57;;;2.65;;
1446;SDS011;717;51.522;7.266;2024-02-16T12:40:47;3.97;;;2.10;;
1446;SDS011;717;51.522;7.266;2024-02-16T12:43:20;4.20;;;2.45;;
1446;SDS011;717;51.522;7.266;2024-02-16T12:45:50;3.72;;;1.83;;
1446;SDS011;717;51.522;7.266;2024-02-16T12:48:20;4.32;;;2.05;;
1446;SDS011;717;51.522;7.266;2024-02-16T12:50:50;3.67;;;2.00;;
1446;SDS011;717;51.522;7.266;2024-02-16T12:53:20;3.67;;;2.45;;
1446;SDS011;717;51.522;7.266;2024-02-16T12:55:51;3.92;;;1.98;;
1446;SDS011;717;51.522;7.266;2024-02-16T12:58:23;4.13;;;2.28;;
1446;SDS011;717;51.522;7.266;2024-02-16T13:00:54;4.00;;;2.25;;
1446;SDS011;717;51.522;7.266;2024-02-16T13:03:37;4.85;;;2.50;;
1446;SDS011;717;51.522;7.266;2024-02-16T13:06:07;3.45;;;2.05;;
1446;SDS011;717;51.522;7.266;2024-02-16T13:08:38;3.40;;;2.10;;
1446;SDS011;717;51.522;7.266;2024-02-16T13:11:08;5.22;;;2.03;;
1446;SDS011;717;51.522;7.266;2024-02-16T13:13:41;3.85;;;2.40;;
1446;SDS011;717;51.522;7.266;2024-02-16T13:16:11;4.05;;;2.10;;
1446;SDS011;717;51.522;7.266;2024-02-16T13:18:41;3.47;;;2.33;;
1446;SDS011;717;51.522;7.266;2024-02-16T13:21:11;4.05;;;2.08;;
1446;SDS011;717;51.522;7.266;2024-02-16T13:23:42;5.38;;;2.47;;
1446;SDS011;717;51.522;7.266;2024-02-16T13:26:12;3.38;;;2.20;;
1446;SDS011;717;51.522;7.266;2024-02-16T13:28:46;8.35;;;2.90;;
1446;SDS011;717;51.522;7.266;2024-02-16T13:31:17;4.03;;;2.72;;
1446;SDS011;717;51.522;7.266;2024-02-16T13:33:47;3.65;;;2.28;;
1446;SDS011;717;51.522;7.266;2024-02-16T13:36:17;5.97;;;3.15;;
1446;SDS011;717;51.522;7.266;2024-02-16T13:38:48;5.28;;;2.80;;
1446;SDS011;717;51.522;7.266;2024-02-16T13:41:19;7.10;;;3.10;;
1446;SDS011;717;51.522;7.266;2024-02-16T13:43:51;5.47;;;3.15;;
1446;SDS011;717;51.522;7.266;2024-02-16T13:46:21;7.70;;;4.13;;
1446;SDS011;717;51.522;7.266;2024-02-16T13:48:52;5.50;;;3.40;;
1446;SDS011;717;51.522;7.266;2024-02-16T13:51:23;6.30;;;3.83;;
1446;SDS011;717;51.522;7.266;2024-02-16T13:53:53;5.80;;;3.53;;
1446;SDS011;717;51.522;7.266;2024-02-16T13:56:24;8.00;;;4.38;;
1446;SDS011;717;51.522;7.266;2024-02-16T13:58:56;7.55;;;4.30;;
1446;SDS011;717;51.522;7.266;2024-02-16T14:01:26;6.93;;;4.63;;
1446;SDS011;717;51.522;7.266;2024-02-16T14:03:57;7.63;;;4.70;;
1446;SDS011;717;51.522;7.266;2024-02-16T14:06:28;5.90;;;4.72;;
1446;SDS011;717;51.522;7.266;2024-02-16T14:09:03;5.10;;;4.55;;
1446;SDS011;717;51.522;7.266;2024-02-16T14:11:49;5.53;;;4.70;;
1446;SDS011;717;51.522;7.266;2024-02-16T14:14:23;7.22;;;5.63;;
1446;SDS011;717;51.522;7.266;2024-02-16T14:17:04;8.23;;;5.80;;
1446;SDS011;717;51.522;7.266;2024-02-16T14:19:35;7.47;;;5.65;;
1446;SDS011;717;51.522;7.266;2024-02-16T14:22:06;6.10;;;5.45;;
1446;SDS011;717;51.522;7.266;2024-02-16T14:24:39;6.88;;;6.10;;
1446;SDS011;717;51.522;7.266;2024-02-16T14:27:09;7.28;;;5.80;;
1446;SDS011;717;51.522;7.266;2024-02-16T14:29:42;7.53;;;6.22;;
1446;SDS011;717;51.522;7.266;2024-02-16T14:32:12;7.47;;;6.68;;
1446;SDS011;717;51.522;7.266;2024-02-16T14:34:43;8.48;;;7.35;;
1446;SDS011;717;51.522;7.266;2024-02-16T14:37:13;8.52;;;7.72;;
1446;SDS011;717;51.522;7.266;2024-02-16T14:39:43;10.35;;;7.78;;
1446;SDS011;717;51.522;7.266;2024-02-16T14:42:13;8.88;;;7.97;;
1446;SDS011;717;51.522;7.266;2024-02-16T14:44:46;9.25;;;8.35;;
1446;SDS011;717;51.522;7.266;2024-02-16T14:47:20;9.77;;;8.85;;
1446;SDS011;717;51.522;7.266;2024-02-16T14:49:51;9.77;;;8.88;;
1446;SDS011;717;51.522;7.266;2024-02-16T14:52:21;10.27;;;9.15;;
1446;SDS011;717;51.522;7.266;2024-02-16T14:54:51;10.48;;;9.40;;
1446;SDS011;717;51.522;7.266;2024-02-16T14:57:22;9.80;;;8.90;;
1446;SDS011;717;51.522;7.266;2024-02-16T14:59:55;10.80;;;9.48;;
1446;SDS011;717;51.522;7.266;2024-02-16T15:02:25;9.40;;;8.45;;
1446;SDS011;717;51.522;7.266;2024-02-16T15:04:55;12.07;;;10.05;;
1446;SDS011;717;51.522;7.266;2024-02-16T15:07:26;12.02;;;10.82;;
1446;SDS011;717;51.522;7.266;2024-02-16T15:09:56;11.65;;;10.55;;
1446;SDS011;717;51.522;7.266;2024-02-16T15:12:27;13.82;;;12.50;;
1446;SDS011;717;51.522;7.266;2024-02-16T15:15:00;14.68;;;13.35;;
1446;SDS011;717;51.522;7.266;2024-02-16T15:17:30;14.40;;;12.85;;
1446;SDS011;717;51.522;7.266;2024-02-16T15:20:00;14.45;;;12.82;;
1446;SDS011;717;51.522;7.266;2024-02-16T15:22:32;14.63;;;13.27;;
1446;SDS011;717;51.522;7.266;2024-02-16T15:25:14;14.73;;;13.15;;
1446;SDS011;717;51.522;7.266;2024-02-16T15:27:45;14.07;;;12.68;;
1446;SDS011;717;51.522;7.266;2024-02-16T15:30:18;14.00;;;12.68;;
1446;SDS011;717;51.522;7.266;2024-02-16T15:32:48;13.23;;;11.93;;
1446;SDS011;717;51.522;7.266;2024-02-16T15:35:21;12.85;;;11.60;;
1446;SDS011;717;51.522;7.266;2024-02-16T15:37:51;12.43;;;11.13;;
1446;SDS011;717;51.522;7.266;2024-02-16T15:40:22;11.35;;;10.27;;
1446;SDS011;717;51.522;7.266;2024-02-16T15:42:58;12.77;;;11.48;;
1446;SDS011;717;51.522;7.266;2024-02-16T15:45:32;11.05;;;10.05;;
1446;SDS011;717;51.522;7.266;2024-02-16T15:48:07;10.25;;;9.27;;
1446;SDS011;717;51.522;7.266;2024-02-16T15:50:39;10.52;;;9.52;;
1446;SDS011;717;51.522;7.266;2024-02-16T15:53:09;10.10;;;9.10;;